createdAt,value
2019-03-22T00:01:43.367Z,4.63
2019-03-22T00:04:14.827Z,4.30
2019-03-22T00:06:46.230Z,4.53
2019-03-22T00:09:17.889Z,4.47
2019-03-22T00:11:49.337Z,4.43
2019-03-22T00:14:20.764Z,4.77
2019-03-22T00:16:52.168Z,4.83
2019-03-22T00:19:23.578Z,4.67
2019-03-22T00:21:55.036Z,4.70
2019-03-22T00:24:26.440Z,4.50
2019-03-22T00:26:57.868Z,4.70
2019-03-22T00:29:29.265Z,4.70
2019-03-22T00:32:00.662Z,5.07
2019-03-22T00:34:32.042Z,5.00
2019-03-22T00:37:03.509Z,4.73
2019-03-22T00:39:35.207Z,5.63
2019-03-22T00:42:06.615Z,4.93
2019-03-22T00:44:38.019Z,4.73
2019-03-22T00:47:09.522Z,4.67
2019-03-22T00:49:40.908Z,4.33
2019-03-22T00:52:12.338Z,4.50
2019-03-22T00:54:43.755Z,4.77
2019-03-22T00:57:15.175Z,4.63
2019-03-22T00:59:46.593Z,5.30
2019-03-22T01:02:18.021Z,5.13
2019-03-22T01:04:49.430Z,5.03
2019-03-22T01:07:20.902Z,5.50
2019-03-22T01:09:52.290Z,4.87
2019-03-22T01:12:23.733Z,4.87
2019-03-22T01:14:55.188Z,5.00
2019-03-22T01:17:26.586Z,5.53
2019-03-22T01:19:57.952Z,5.57
2019-03-22T01:22:29.384Z,5.37
2019-03-22T01:25:00.811Z,5.23
2019-03-22T01:27:40.499Z,4.97
2019-03-22T01:30:06.317Z,5.93
2019-03-22T01:32:37.823Z,5.47
2019-03-22T01:35:09.759Z,5.20
2019-03-22T01:37:41.165Z,4.90
2019-03-22T01:40:12.875Z,5.23
2019-03-22T01:42:44.337Z,5.30
2019-03-22T01:45:16.720Z,4.30
2019-03-22T01:47:48.225Z,4.90
2019-03-22T01:50:20.617Z,5.07
2019-03-22T01:52:52.067Z,4.80
2019-03-22T01:55:23.725Z,4.87
2019-03-22T01:57:55.214Z,4.67
2019-03-22T02:00:26.604Z,4.60
2019-03-22T02:02:58.142Z,5.17
2019-03-22T02:05:29.553Z,4.40
2019-03-22T02:08:01.035Z,5.30
2019-03-22T02:10:32.485Z,4.93
2019-03-22T02:13:03.966Z,4.77
2019-03-22T02:15:35.336Z,5.10
2019-03-22T02:18:07.012Z,5.00
2019-03-22T02:20:38.397Z,5.03
2019-03-22T02:23:09.801Z,5.30
2019-03-22T02:25:41.253Z,5.40
2019-03-22T02:28:12.708Z,5.07
2019-03-22T02:30:44.085Z,4.83
2019-03-22T02:33:15.525Z,4.77
2019-03-22T02:35:46.947Z,4.80
2019-03-22T02:38:18.396Z,4.20
2019-03-22T02:40:49.794Z,4.33
2019-03-22T02:43:21.234Z,4.50
2019-03-22T02:45:52.789Z,4.40
2019-03-22T02:48:24.281Z,4.60
2019-03-22T02:50:56.340Z,4.97
2019-03-22T02:53:28.045Z,4.63
2019-03-22T02:55:59.440Z,4.13
2019-03-22T02:58:30.908Z,4.70
2019-03-22T03:01:02.513Z,4.80
2019-03-22T03:03:34.008Z,5.17
2019-03-22T03:06:05.432Z,4.87
2019-03-22T03:08:36.821Z,4.93
2019-03-22T03:11:08.286Z,4.50
2019-03-22T03:13:39.726Z,4.97
2019-03-22T03:16:11.170Z,4.70
2019-03-22T03:18:42.574Z,4.27
2019-03-22T03:21:13.957Z,4.87
2019-03-22T03:23:45.331Z,3.80
2019-03-22T03:26:16.734Z,4.93
2019-03-22T03:28:48.157Z,4.77
2019-03-22T03:31:19.814Z,4.53
2019-03-22T03:33:51.375Z,4.97
2019-03-22T03:36:22.865Z,4.60
2019-03-22T03:38:54.333Z,4.30
2019-03-22T03:41:25.735Z,4.63
2019-03-22T03:43:57.198Z,5.00
2019-03-22T03:46:28.605Z,4.83
2019-03-22T03:49:00.023Z,5.13
2019-03-22T03:51:31.437Z,5.13
2019-03-22T03:54:02.803Z,4.27
2019-03-22T03:56:34.209Z,4.50
2019-03-22T03:59:05.786Z,4.30
2019-03-22T04:01:37.347Z,4.23
2019-03-22T04:04:08.735Z,5.10
2019-03-22T04:06:40.126Z,5.00
2019-03-22T04:09:11.863Z,4.50
2019-03-22T04:11:43.231Z,4.33
2019-03-22T04:14:14.610Z,4.17
2019-03-22T04:16:46.083Z,4.17
2019-03-22T04:19:17.478Z,3.97
2019-03-22T04:21:48.876Z,4.57
2019-03-22T04:24:20.262Z,4.37
2019-03-22T04:26:51.712Z,4.20
2019-03-22T04:29:23.080Z,4.00
2019-03-22T04:31:54.516Z,4.30
2019-03-22T04:34:26.062Z,4.03
2019-03-22T04:36:57.465Z,4.03
2019-03-22T04:39:28.965Z,3.97
2019-03-22T04:42:00.397Z,3.60
2019-03-22T04:44:31.835Z,3.57
2019-03-22T04:47:04.258Z,4.00
2019-03-22T04:49:37.447Z,4.00
2019-03-22T04:52:10.754Z,4.67
2019-03-22T04:54:43.891Z,4.10
2019-03-22T04:57:16.625Z,3.73
2019-03-22T04:59:50.094Z,4.20
2019-03-22T05:02:21.995Z,4.70
2019-03-22T05:04:53.621Z,3.77
2019-03-22T05:07:25.117Z,3.87
2019-03-22T05:09:57.206Z,3.90
2019-03-22T05:12:28.696Z,4.00
2019-03-22T05:15:01.008Z,3.70
2019-03-22T05:17:33.407Z,4.00
2019-03-22T05:20:05.558Z,4.93
2019-03-22T05:22:38.588Z,4.27
2019-03-22T05:25:11.990Z,4.37
2019-03-22T05:27:45.259Z,4.30
2019-03-22T05:31:03.216Z,3.90
2019-03-22T05:33:34.665Z,4.63
2019-03-22T05:36:06.088Z,4.23
2019-03-22T05:38:37.562Z,4.03
2019-03-22T05:41:08.947Z,4.00
2019-03-22T05:43:40.382Z,4.80
2019-03-22T05:46:11.844Z,5.03
2019-03-22T05:48:43.283Z,5.33
2019-03-22T05:51:14.748Z,4.23
2019-03-22T05:53:46.133Z,5.37
2019-03-22T05:56:17.526Z,4.60
2019-03-22T05:58:48.959Z,5.50
2019-03-22T06:01:20.399Z,4.97
2019-03-22T06:03:51.839Z,4.70
2019-03-22T06:06:23.208Z,4.40
2019-03-22T06:08:54.663Z,4.63
2019-03-22T06:11:26.085Z,4.07
2019-03-22T06:13:57.501Z,4.80
2019-03-22T06:16:29.019Z,4.90
2019-03-22T06:19:00.409Z,4.53
2019-03-22T06:21:32.097Z,4.40
2019-03-22T06:24:03.433Z,4.53
2019-03-22T06:26:34.841Z,4.13
2019-03-22T06:29:06.289Z,4.50
2019-03-22T06:31:37.626Z,3.90
2019-03-22T06:34:09.096Z,4.40
2019-03-22T06:36:40.597Z,4.70
2019-03-22T06:39:12.631Z,4.47
2019-03-22T06:41:44.011Z,4.30
2019-03-22T06:44:15.463Z,4.73
2019-03-22T06:46:47.216Z,5.20
2019-03-22T06:49:18.600Z,4.60
2019-03-22T06:51:50.071Z,3.90
2019-03-22T06:54:30.945Z,4.43
2019-03-22T06:56:54.592Z,4.57
2019-03-22T06:59:25.951Z,4.40
2019-03-22T07:01:57.334Z,4.80
2019-03-22T07:04:28.739Z,5.10
2019-03-22T07:07:00.488Z,4.90
2019-03-22T07:09:31.857Z,5.23
2019-03-22T07:12:03.381Z,4.77
2019-03-22T07:14:34.806Z,4.37
2019-03-22T07:17:06.190Z,4.43
2019-03-22T07:19:38.232Z,4.60
2019-03-22T07:22:09.639Z,4.80
2019-03-22T07:24:41.109Z,5.23
2019-03-22T07:27:12.561Z,4.77
2019-03-22T07:29:44.067Z,5.70
2019-03-22T07:32:15.445Z,5.70
2019-03-22T07:34:46.898Z,4.70
2019-03-22T07:37:18.351Z,4.80
2019-03-22T07:39:49.791Z,5.53
2019-03-22T07:42:21.260Z,5.37
2019-03-22T07:44:52.656Z,5.40
2019-03-22T07:47:24.157Z,5.10
2019-03-22T07:49:55.584Z,5.43
2019-03-22T07:52:27.041Z,4.93
2019-03-22T07:54:58.435Z,5.03
2019-03-22T07:57:29.847Z,4.97
2019-03-22T08:00:01.214Z,4.80
2019-03-22T08:02:32.617Z,4.77
2019-03-22T08:05:04.190Z,5.23
2019-03-22T08:07:35.567Z,5.70
2019-03-22T08:10:08.867Z,5.20
2019-03-22T08:12:40.863Z,4.80
2019-03-22T08:15:13.880Z,5.50
2019-03-22T08:17:45.286Z,5.83
2019-03-22T08:20:16.771Z,5.20
2019-03-22T08:22:48.202Z,5.03
2019-03-22T08:25:19.624Z,5.20
2019-03-22T08:27:51.072Z,5.20
2019-03-22T08:30:22.597Z,4.80
2019-03-22T08:32:54.085Z,5.23
2019-03-22T08:35:25.495Z,5.20
2019-03-22T08:37:56.894Z,5.13
2019-03-22T08:40:28.298Z,6.17
2019-03-22T08:42:59.814Z,5.63
2019-03-22T08:45:31.301Z,5.37
2019-03-22T08:48:02.777Z,5.77
2019-03-22T08:50:34.136Z,6.03
2019-03-22T08:53:05.598Z,5.93
2019-03-22T08:55:36.952Z,5.10
2019-03-22T08:58:09.465Z,5.70
2019-03-22T09:00:40.923Z,5.37
2019-03-22T09:03:12.345Z,5.90
2019-03-22T09:05:43.732Z,5.87
2019-03-22T09:08:16.198Z,5.77
2019-03-22T09:10:47.873Z,6.13
2019-03-22T09:13:19.271Z,5.63
2019-03-22T09:15:50.750Z,5.87
2019-03-22T09:18:22.146Z,6.03
2019-03-22T09:20:53.571Z,6.07
2019-03-22T09:23:24.962Z,5.83
2019-03-22T09:25:56.469Z,5.77
2019-03-22T09:28:27.862Z,6.07
2019-03-22T09:31:09.834Z,5.47
2019-03-22T09:33:32.424Z,5.57
2019-03-22T09:36:03.890Z,5.53
2019-03-22T09:38:35.339Z,5.27
2019-03-22T09:41:06.945Z,5.30
2019-03-22T09:43:38.387Z,4.97
2019-03-22T09:46:09.807Z,4.77
2019-03-22T09:48:41.206Z,4.80
2019-03-22T09:51:12.645Z,4.27
2019-03-22T09:53:44.079Z,4.77
2019-03-22T09:56:15.597Z,5.10
2019-03-22T09:58:47.075Z,4.70
2019-03-22T10:01:23.735Z,5.20
2019-03-22T10:03:51.634Z,5.57
2019-03-22T10:06:23.240Z,5.50
2019-03-22T10:08:54.837Z,4.93
2019-03-22T10:11:26.470Z,5.20
2019-03-22T10:13:57.911Z,5.03
2019-03-22T10:16:29.380Z,5.30
2019-03-22T10:19:00.945Z,4.63
2019-03-22T10:21:32.344Z,5.07
2019-03-22T10:24:04.061Z,5.40
2019-03-22T10:26:35.454Z,5.40
2019-03-22T10:29:07.324Z,4.73
2019-03-22T10:31:38.892Z,5.00
2019-03-22T10:34:13.373Z,5.60
2019-03-22T10:36:44.859Z,5.27
2019-03-22T10:39:16.276Z,4.60
2019-03-22T10:41:47.714Z,4.27
2019-03-22T10:44:19.187Z,4.37
2019-03-22T10:46:50.592Z,5.00
2019-03-22T10:49:22.002Z,4.50
2019-03-22T10:51:57.423Z,3.97
2019-03-22T10:54:26.598Z,3.50
2019-03-22T10:56:58.003Z,3.80
2019-03-22T10:59:29.408Z,3.67
2019-03-22T11:02:03.671Z,3.60
2019-03-22T11:04:34.006Z,3.33
2019-03-22T11:07:05.517Z,3.10
2019-03-22T11:09:36.971Z,2.70
2019-03-22T11:12:12.366Z,3.00
2019-03-22T11:14:41.552Z,3.27
2019-03-22T11:17:12.976Z,3.73
2019-03-22T11:19:44.328Z,3.40
2019-03-22T11:22:15.783Z,4.50
2019-03-22T11:24:47.166Z,4.00
2019-03-22T11:27:18.644Z,4.07
2019-03-22T11:29:50.077Z,4.03
2019-03-22T11:32:21.750Z,4.23
2019-03-22T11:34:54.833Z,4.50
2019-03-22T11:37:26.432Z,3.60
2019-03-22T11:39:57.862Z,3.52
2019-03-22T11:42:29.297Z,3.62
2019-03-22T11:45:00.723Z,3.60
2019-03-22T11:47:32.708Z,3.87
2019-03-22T11:50:04.239Z,4.15
2019-03-22T11:52:35.871Z,3.70
2019-03-22T11:55:10.919Z,4.27
2019-03-22T11:57:42.424Z,3.70
2019-03-22T12:00:19.418Z,3.67
2019-03-22T12:02:50.818Z,3.72
2019-03-22T12:05:23.256Z,3.23
2019-03-22T12:07:54.656Z,3.30
2019-03-22T12:10:26.905Z,2.95
2019-03-22T12:12:58.348Z,3.03
2019-03-22T12:15:29.789Z,3.93
2019-03-22T12:18:01.203Z,3.50
2019-03-22T12:20:32.652Z,3.27
2019-03-22T12:23:05.025Z,4.65
2019-03-22T12:25:36.498Z,3.23
2019-03-22T12:28:07.991Z,4.17
2019-03-22T12:30:39.420Z,3.60
2019-03-22T12:33:11.017Z,4.00
2019-03-22T12:35:42.730Z,4.47
2019-03-22T12:38:14.703Z,3.98
2019-03-22T12:40:46.192Z,3.72
2019-03-22T12:43:17.670Z,4.40
2019-03-22T12:45:49.167Z,4.07
2019-03-22T12:48:20.602Z,3.80
2019-03-22T12:50:52.047Z,4.57
2019-03-22T12:53:23.435Z,4.63
2019-03-22T12:55:56.578Z,4.20
2019-03-22T12:58:28.015Z,3.95
2019-03-22T13:00:59.977Z,4.33
2019-03-22T13:03:31.379Z,4.12
2019-03-22T13:06:02.842Z,3.90
2019-03-22T13:08:34.605Z,4.57
2019-03-22T13:11:06.095Z,4.20
2019-03-22T13:13:37.557Z,3.93
2019-03-22T13:16:08.957Z,3.60
2019-03-22T13:18:49.821Z,3.93
2019-03-22T13:21:13.930Z,3.73
2019-03-22T13:23:45.957Z,3.95
2019-03-22T13:26:17.481Z,3.67
2019-03-22T13:28:49.041Z,3.90
2019-03-22T13:31:20.551Z,3.77
2019-03-22T13:33:51.974Z,3.83
2019-03-22T13:36:23.459Z,3.40
2019-03-22T13:38:54.899Z,4.12
2019-03-22T13:41:26.925Z,3.33
2019-03-22T13:43:58.543Z,3.42
2019-03-22T13:46:39.738Z,3.33
2019-03-22T13:49:03.224Z,3.15
2019-03-22T13:51:35.240Z,3.22
2019-03-22T13:54:06.669Z,3.63
2019-03-22T13:56:38.100Z,3.20
2019-03-22T13:59:12.780Z,3.27
2019-03-22T14:01:44.207Z,3.80
2019-03-22T14:04:15.612Z,3.60
2019-03-22T14:06:47.429Z,2.80
2019-03-22T14:09:18.864Z,3.30
2019-03-22T14:11:50.301Z,3.00
2019-03-22T14:14:22.333Z,3.20
2019-03-22T14:16:54.097Z,3.17
2019-03-22T14:19:26.127Z,3.80
2019-03-22T14:21:57.655Z,3.67
2019-03-22T14:24:29.070Z,3.60
2019-03-22T14:27:01.128Z,3.70
2019-03-22T14:29:32.574Z,3.53
2019-03-22T14:32:04.010Z,2.90
2019-03-22T14:34:35.418Z,2.67
2019-03-22T14:37:07.448Z,2.58
2019-03-22T14:39:38.811Z,2.50
2019-03-22T14:42:10.289Z,2.20
2019-03-22T14:44:41.806Z,2.72
2019-03-22T14:47:13.248Z,3.00
2019-03-22T14:49:44.905Z,2.80
2019-03-22T14:52:16.344Z,2.90
2019-03-22T14:54:48.312Z,2.90
2019-03-22T14:57:19.790Z,2.90
2019-03-22T14:59:58.639Z,2.43
2019-03-22T15:02:24.391Z,3.43
2019-03-22T15:04:55.876Z,3.37
2019-03-22T15:07:27.299Z,3.27
2019-03-22T15:09:58.725Z,3.47
2019-03-22T15:12:30.780Z,3.70
2019-03-22T15:15:24.006Z,3.57
2019-03-22T15:18:04.729Z,3.50
2019-03-22T15:20:57.903Z,3.77
2019-03-22T15:23:46.879Z,3.57
2019-03-22T15:26:28.610Z,3.70
2019-03-22T15:29:28.373Z,3.70
2019-03-22T15:32:33.904Z,3.20
2019-03-22T15:35:23.509Z,3.13
2019-03-22T15:38:14.027Z,2.80
2019-03-22T15:40:45.444Z,3.00
2019-03-22T15:43:16.938Z,3.67
2019-03-22T15:45:49.652Z,3.20
2019-03-22T15:48:21.163Z,3.47
2019-03-22T15:50:52.657Z,3.10
2019-03-22T15:53:24.147Z,4.10
2019-03-22T15:55:55.536Z,3.50
2019-03-22T15:58:27.018Z,3.93
2019-03-22T16:00:58.449Z,4.17
2019-03-22T16:03:29.901Z,3.83
2019-03-22T16:06:01.302Z,4.00
2019-03-22T16:08:32.754Z,3.60
2019-03-22T16:11:04.135Z,3.60
2019-03-22T16:13:37.380Z,4.27
2019-03-22T16:16:08.844Z,4.03
2019-03-22T16:18:40.280Z,4.00
2019-03-22T16:21:11.829Z,5.50
2019-03-22T16:23:43.262Z,4.70
2019-03-22T16:26:14.767Z,4.97
2019-03-22T16:28:46.250Z,4.87
2019-03-22T16:31:17.673Z,4.07
2019-03-22T16:33:54.350Z,3.93
2019-03-22T16:36:22.272Z,4.60
2019-03-22T16:38:53.745Z,4.90
2019-03-22T16:41:25.225Z,5.03
2019-03-22T16:43:56.684Z,4.83
2019-03-22T16:46:28.205Z,5.13
2019-03-22T16:48:59.909Z,5.10
2019-03-22T16:51:31.453Z,5.00
2019-03-22T16:54:03.136Z,5.07
2019-03-22T16:56:34.577Z,5.20
2019-03-22T16:59:06.710Z,5.43
2019-03-22T17:01:38.210Z,5.67
2019-03-22T17:04:11.706Z,5.23
2019-03-22T17:06:43.145Z,5.27
2019-03-22T17:09:14.635Z,5.80
2019-03-22T17:11:46.166Z,5.80
2019-03-22T17:14:17.586Z,5.80
2019-03-22T17:16:49.003Z,5.50
2019-03-22T17:19:20.394Z,5.10
2019-03-22T17:21:52.359Z,5.40
2019-03-22T17:24:23.814Z,5.50
2019-03-22T17:26:55.300Z,5.70
2019-03-22T17:29:26.709Z,6.10
2019-03-22T17:31:58.228Z,5.77
2019-03-22T17:34:29.656Z,6.03
2019-03-22T17:37:01.079Z,5.80
2019-03-22T17:39:32.534Z,5.00
2019-03-22T17:42:03.988Z,5.57
2019-03-22T17:44:35.470Z,5.33
2019-03-22T17:47:06.920Z,6.17
2019-03-22T17:49:47.604Z,5.90
2019-03-22T17:52:11.654Z,6.17
2019-03-22T17:54:43.204Z,5.27
2019-03-22T17:57:18.705Z,6.40
2019-03-22T17:59:47.851Z,5.80
2019-03-22T18:02:19.350Z,5.60
2019-03-22T18:04:50.815Z,6.57
2019-03-22T18:07:22.283Z,6.10
2019-03-22T18:09:53.763Z,5.93
2019-03-22T18:12:25.234Z,6.00
2019-03-22T18:14:57.957Z,5.57
2019-03-22T18:17:30.804Z,5.57
2019-03-22T18:20:02.238Z,5.60
2019-03-22T18:22:33.744Z,6.20
2019-03-22T18:25:05.675Z,5.90
2019-03-22T18:27:37.279Z,5.73
2019-03-22T18:30:09.474Z,6.43
2019-03-22T18:32:40.911Z,6.33
2019-03-22T18:35:12.789Z,7.00
2019-03-22T18:37:44.238Z,7.03
2019-03-22T18:40:15.826Z,6.50
2019-03-22T18:42:47.252Z,6.47
2019-03-22T18:45:18.824Z,6.07
2019-03-22T18:47:50.270Z,5.23
2019-03-22T18:50:22.212Z,6.33
2019-03-22T18:52:53.661Z,6.33
2019-03-22T18:55:25.144Z,5.83
2019-03-22T18:57:56.636Z,6.70
2019-03-22T19:00:28.081Z,6.50
2019-03-22T19:02:59.526Z,5.70
2019-03-22T19:05:31.040Z,5.67
2019-03-22T19:08:02.563Z,6.27
2019-03-22T19:10:34.012Z,6.60
2019-03-22T19:13:07.707Z,6.53
2019-03-22T19:15:38.712Z,6.73
2019-03-22T19:18:10.292Z,6.83
2019-03-22T19:20:41.737Z,6.30
2019-03-22T19:23:13.218Z,6.37
2019-03-22T19:25:44.685Z,6.13
2019-03-22T19:28:16.129Z,6.43
2019-03-22T19:30:47.526Z,6.40
2019-03-22T19:33:19.024Z,5.80
2019-03-22T19:35:50.479Z,6.20
2019-03-22T19:38:21.993Z,7.17
2019-03-22T19:40:53.422Z,6.80
2019-03-22T19:43:24.850Z,7.40
2019-03-22T19:45:56.314Z,8.40
2019-03-22T19:48:27.768Z,9.17
2019-03-22T19:50:59.244Z,7.93
2019-03-22T19:53:30.731Z,8.50
2019-03-22T19:56:02.220Z,8.20
2019-03-22T19:58:33.716Z,8.43
2019-03-22T20:01:05.279Z,8.13
2019-03-22T20:03:36.704Z,8.90
2019-03-22T20:06:08.137Z,8.67
2019-03-22T20:08:39.558Z,8.63
2019-03-22T20:11:11.042Z,8.57
2019-03-22T20:13:42.517Z,7.93
2019-03-22T20:16:13.976Z,7.47
2019-03-22T20:18:45.434Z,7.53
2019-03-22T20:21:16.985Z,6.83
2019-03-22T20:23:53.649Z,6.90
2019-03-22T20:26:21.594Z,6.40
2019-03-22T20:28:53.067Z,7.70
2019-03-22T20:31:24.534Z,7.40
2019-03-22T20:33:56.132Z,6.70
2019-03-22T20:36:27.703Z,7.63
2019-03-22T20:38:59.258Z,7.40
2019-03-22T20:41:30.754Z,7.83
2019-03-22T20:44:02.259Z,6.53
2019-03-22T20:46:33.720Z,6.87
2019-03-22T20:49:05.334Z,7.10
2019-03-22T20:51:36.744Z,6.67
2019-03-22T20:54:08.612Z,6.70
2019-03-22T20:56:40.091Z,6.70
2019-03-22T20:59:11.510Z,7.00
2019-03-22T21:01:43.006Z,6.73
2019-03-22T21:04:14.505Z,9.10
2019-03-22T21:06:45.955Z,7.87
2019-03-22T21:09:17.436Z,7.90
2019-03-22T21:11:48.854Z,7.57
2019-03-22T21:14:20.353Z,7.50
2019-03-22T21:16:59.353Z,6.87
2019-03-22T21:19:30.817Z,7.13
2019-03-22T21:22:02.280Z,7.50
2019-03-22T21:24:33.728Z,7.43
2019-03-22T21:27:15.191Z,7.37
2019-03-22T21:29:44.151Z,8.27
2019-03-22T21:32:12.454Z,7.13
2019-03-22T21:34:44.304Z,7.70
2019-03-22T21:37:15.850Z,7.10
2019-03-22T21:39:47.397Z,8.10
2019-03-22T21:42:19.043Z,7.57
2019-03-22T21:44:50.424Z,7.27
2019-03-22T21:47:22.206Z,7.43
2019-03-22T21:49:53.676Z,7.33
2019-03-22T21:52:25.256Z,7.30
2019-03-22T21:54:56.702Z,7.13
2019-03-22T21:57:28.149Z,7.80
2019-03-22T21:59:59.595Z,8.47
2019-03-22T22:02:31.081Z,8.60
2019-03-22T22:05:02.556Z,7.87
2019-03-22T22:07:34.047Z,8.57
2019-03-22T22:10:05.713Z,8.07
2019-03-22T22:12:37.187Z,8.27
2019-03-22T22:15:10.751Z,8.13
2019-03-22T22:17:42.946Z,8.37
2019-03-22T22:20:14.581Z,7.50
2019-03-22T22:22:46.045Z,7.60
2019-03-22T22:25:17.492Z,7.87
2019-03-22T22:27:48.969Z,7.73
2019-03-22T22:30:23.431Z,7.80
2019-03-22T22:32:54.801Z,8.37
2019-03-22T22:35:26.236Z,7.60
2019-03-22T22:37:57.744Z,8.43
2019-03-22T22:40:29.246Z,7.80
2019-03-22T22:43:00.691Z,8.43
2019-03-22T22:45:32.111Z,7.83
2019-03-22T22:48:03.547Z,7.57
2019-03-22T22:50:37.065Z,7.63
2019-03-22T22:53:08.500Z,8.10
2019-03-22T22:55:40.783Z,7.53
2019-03-22T22:58:14.574Z,9.10
2019-03-22T23:00:46.402Z,8.13
2019-03-22T23:03:17.806Z,8.03
2019-03-22T23:05:49.254Z,8.13
2019-03-22T23:08:20.713Z,8.20
2019-03-22T23:10:52.091Z,8.10
2019-03-22T23:13:23.519Z,8.03
2019-03-22T23:15:54.936Z,8.13
2019-03-22T23:18:26.303Z,8.10
2019-03-22T23:20:57.718Z,7.93
2019-03-22T23:23:29.158Z,8.77
2019-03-22T23:26:00.550Z,7.13
2019-03-22T23:28:31.926Z,8.83
2019-03-22T23:31:03.331Z,8.07
2019-03-22T23:33:34.777Z,7.77
2019-03-22T23:36:06.260Z,7.47
2019-03-22T23:38:37.705Z,7.93
2019-03-22T23:41:09.108Z,8.40
2019-03-22T23:43:40.550Z,8.00
2019-03-22T23:46:11.958Z,8.73
2019-03-22T23:48:43.343Z,8.50
2019-03-22T23:51:14.763Z,8.70
2019-03-22T23:53:46.140Z,9.13
2019-03-22T23:56:17.573Z,9.00
2019-03-22T23:58:49.008Z,8.30
